Station: Lady Elliot Island  

  Atmospheric Gas Attenuation - ITU Rec 676-11   ----------------- dB/100km -----------------
Date Time Temp RH % AH g/m3 Dew Point Wind Direction Speed kph Gust kph Barometer mB Rainfall Since 9am 24GHz 47GHz 76GHz 122GHz 134GHz 241GHz
06/09 21:00 21.8 86 16.5 19.4 26 30 1017.2 0 35.9 37.0 68.8 181.7 196.1 680.4
06/09 20:50 21.8 85 16.31 19.2 26 32 1017.1 0 35.5 36.6 67.9 179.4 193.2 670.3
06/09 20:40 21.9 84 16.21 19.1 26 30 1017.1 0 35.3 36.4 67.4 177.9 191.4 664.2
06/09 20:30 21.7 85 16.21 19.1 26 32 1017 0 35.3 36.5 67.5 178.4 191.9 665.9
06/09 20:20 21.7 86 16.4 19.3 26 30 1017 0 35.7 36.8 68.4 180.7 194.8 675.9
06/09 20:10 21.8 85 16.31 19.2 26 30 1017 0 35.5 36.6 67.9 179.4 193.2 670.3
06/09 20:00 21.8 86 16.5 19.4 24 30 1016.9 0 35.9 37.0 68.8 181.7 196.0 680.2
06/09 19:50 21.8 85 16.31 19.2 26 30 1016.8 0 35.5 36.6 67.9 179.3 193.1 670.2
06/09 19:40 21.8 84 16.11 19 28 33 1016.7 0 35.1 36.2 67.0 176.9 190.1 659.6
06/09 19:30 21.8 85 16.31 19.2 26 32 1016.7 0 35.5 36.6 67.9 179.3 193.1 670.1
06/09 19:20 21.7 85 16.21 19.1 24 30 1016.6 0 35.3 36.5 67.5 178.3 191.9 665.7
06/09 19:10 21.7 84 16.02 18.9 26 30 1016.5 0 34.9 36.1 66.6 176.0 189.0 655.7
06/09 19:00 21.8 84 16.11 19 24 30 1016.5 0 35.1 36.2 66.9 176.9 190.1 659.5
06/09 18:50 21.5 84 15.84 18.7 24 28 1016.5 0 34.5 35.9 66.0 174.3 186.8 648.0
06/09 18:40 21.7 85 16.21 19.1 24 28 1016.4 0 35.3 36.4 67.5 178.3 191.8 665.6
06/09 18:30 21.8 84 16.11 19 24 30 1016.3 0 35.1 36.2 66.9 176.8 190.1 659.4
06/09 18:20 21.8 84 16.11 19 24 28 1016.3 0 35.1 36.2 66.9 176.8 190.1 659.4
06/09 18:10 21.6 83 15.74 18.6 22 28 1016.3 0 34.3 35.6 65.4 172.8 185.0 641.9
06/09 18:00 21.7 83 15.83 18.7 22 30 1016.2 0 34.5 35.7 65.7 173.6 186.1 645.7
06/09 17:50 21.8 83 15.92 18.8 22 30 1016.2 0 34.7 35.9 66.1 174.5 187.2 649.5
06/09 17:40 21.8 84 16.11 19 22 26 1016.1 0 35.1 36.2 66.9 176.8 190.0 659.3
06/09 17:30 21.9 83 16.02 18.9 22 30 1016 0 34.9 36.0 66.4 175.5 188.4 653.7
06/09 17:20 22 81 15.72 18.6 24 28 1016 0 34.2 35.4 65.0 171.6 183.7 637.4
06/09 17:10 22.2 82 16.1 19 24 30 1015.9 0 35.0 36.0 66.5 175.7 188.8 655.3
06/09 17:00 22.4 82 16.28 19.2 22 28 1015.9 0 35.4 36.3 67.2 177.4 191.0 662.9
06/09 16:50 22.5 80 15.98 18.9 24 30 1015.9 0 34.8 35.7 65.7 173.6 186.3 646.5
06/09 16:40 22.7 80 16.16 19.1 24 28 1015.9 0 35.1 35.9 66.4 175.3 188.5 654.1
06/09 16:30 22.6 77 15.47 18.4 24 28 1015.7 0 33.7 34.7 63.3 167.2 178.6 619.5
06/09 16:20 22.9 78 15.94 18.9 24 32 1015.9 0 34.6 35.4 65.2 172.2 184.7 641.1
06/09 16:10 22.9 76 15.53 18.4 24 30 1015.6 0 33.8 34.7 63.3 167.3 178.7 620.1
06/09 16:00 23 76 15.62 18.5 20 26 1015.9 0 33.9 34.8 63.7 168.2 179.8 623.9
06/09 15:50 23.1 75 15.5 18.4 19 24 1016 0 33.7 34.6 63.1 166.6 177.9 617.1
06/09 15:40 23.3 73 15.26 18.2 17 24 1016 0 33.2 34.0 61.8 163.3 173.9 603.5
06/09 15:30 23.4 75 15.77 18.7 17 26 1016 0 34.2 34.9 64.0 169.1 181.1 628.3
06/09 15:20 23.3 75 15.68 18.6 19 26 1016 0 34.1 34.8 63.7 168.2 180.0 624.6
06/09 15:10 23.5 73 15.44 18.4 19 24 1016.1 0 33.5 34.3 62.5 165.0 176.1 610.9
06/09 15:00 23.8 73 15.7 18.7 17 24 1016 0 34.1 34.6 63.4 167.4 179.1 621.5
06/09 14:50 23.9 71 15.36 18.3 17 24 1016 0 33.3 34.0 61.8 163.2 174.0 603.8
06/09 14:40 23.8 70 15.06 18 15 24 1016.1 0 32.7 33.5 60.6 160.0 170.0 589.7
06/09 14:30 24 70 15.23 18.2 17 22 1016.2 0 33.0 33.7 61.2 161.5 171.9 596.6
06/09 14:20 24.3 68 15.05 18 17 24 1016.3 0 32.6 33.3 60.2 158.8 168.7 585.5
06/09 14:10 24.8 69 15.71 18.7 15 20 1016.5 0 34.0 34.3 62.6 165.4 177.0 614.2
06/09 14:00 24.7 68 15.39 18.4 15 22 1016.5 0 33.3 33.7 61.3 161.9 172.7 599.2
06/09 13:49 24.3 68 15.05 18.2 15 20 1016.7 0 32.6 33.3 60.2 158.9 168.8 585.7
06/09 13:40 24.6 68 15.3 18.3 17 24 1016.8 0 33.1 33.6 61.0 161.2 171.6 595.7
06/09 13:30 24.7 67 15.16 18.2 15 24 1017 0 32.8 33.4 60.4 159.4 169.5 588.2
06/09 13:20 24.6 67 15.08 18.1 17 22 1017.2 0 32.7 33.3 60.1 158.7 168.6 585.1
06/09 13:10 25.1 68 15.74 18.8 17 22 1017.4 0 34.0 34.2 62.6 165.2 176.8 613.7
06/09 13:00 25 69 15.88 18.9 17 22 1017.6 0 34.3 34.5 63.3 167.1 179.1 621.6
06/09 12:50 24.6 66 14.85 17.8 17 24 1017.7 0 32.2 32.9 59.2 156.1 165.5 574.1
06/09 12:40 24.8 67 15.25 18.3 15 26 1017.7 0 33.0 33.5 60.7 160.3 170.6 592.1
06/09 12:30 24.9 66 15.11 18.1 17 22 1017.8 0 32.7 33.2 60.0 158.5 168.4 584.5
06/09 12:20 25.1 66 15.28 18.3 15 20 1018.1 0 33.0 33.5 60.6 160.1 170.4 591.4
06/09 12:10 25 67 15.42 18.4 15 20 1018.5 0 33.3 33.8 61.3 161.9 172.7 599.2
06/09 12:00 24.4 66 14.69 17.6 15 20 1018.7 0 31.9 32.7 58.7 154.9 163.8 568.2
06/09 11:50 25 67 15.42 18.4 17 22 1018.9 0 33.3 33.8 61.3 162.0 172.7 599.4
06/09 11:40 25 66 15.19 18.2 15 22 1019.1 0 32.9 33.4 60.4 159.4 169.5 588.2
06/09 11:30 24.8 66 15.02 18 15 22 1019.2 0 32.5 33.2 59.8 157.9 167.6 581.5
06/09 11:20 24.8 65 14.8 17.8 15 20 1019.3 0 32.1 32.8 58.9 155.4 164.5 570.9
06/09 11:10 25.5 68 16.1 19.2 15 22 1019.4 0 34.7 34.8 63.9 168.8 181.2 629.2
06/09 11:00 24.7 69 15.62 18.6 15 24 1019.4 0 33.8 34.3 62.5 165.0 176.3 611.8
06/09 10:50 24.3 68 15.05 18 17 24 1019.5 0 32.6 33.4 60.3 159.3 169.1 586.9
06/09 10:40 24.5 69 15.44 18.4 19 26 1019.6 0 33.4 34.0 61.9 163.4 174.2 604.6
06/09 10:30 24.1 69 15.1 18.1 19 24 1019.6 0 32.7 33.6 60.7 160.3 170.3 590.9
06/09 10:20 24.3 70 15.49 18.5 19 24 1019.7 0 33.5 34.2 62.3 164.4 175.4 608.7
06/09 10:10 24.5 71 15.89 18.9 19 26 1019.7 0 34.4 34.8 63.8 168.6 180.7 627.0
06/09 10:00 23.8 70 15.06 18 20 26 1019.7 0 32.7 33.7 60.8 160.4 170.4 591.3
06/09 09:50 23.7 68 14.54 17.4 17 24 1019.8 0 31.6 32.8 58.6 154.7 163.3 566.5
06/09 09:40 24.1 69 15.1 18.1 15 22 1019.9 0 32.7 33.6 60.7 160.3 170.3 591.0
06/09 09:30 24.3 69 15.27 18.2 15 22 1020 0 33.1 33.8 61.3 161.9 172.3 597.9
06/09 09:20 24.3 70 15.49 18.5 15 20 1020.2 0 33.5 34.2 62.3 164.4 175.5 608.9
06/09 09:10 24 70 15.23 18.2 13 19 1020.3 0 33.0 33.9 61.4 162.1 172.4 598.4
06/09 09:00 23.8 71 15.27 18.2 15 20 1020.4 0 33.1 34.0 61.7 163.0 173.5 602.0
06/09 08:50 23.9 71 15.36 18.3 13 20 1020.5 0 33.3 34.2 62.1 163.8 174.6 605.7
06/09 08:40 23.7 69 14.76 17.7 13 20 1020.5 0 32.0 33.2 59.6 157.3 166.5 577.6
06/09 08:30 23.5 71 15.01 17.9 15 20 1020.2 0 32.6 33.7 60.8 160.6 170.4 591.3
06/09 08:20 23.2 71 14.76 17.7 15 20 1020.1 0 32.1 33.4 60.0 158.3 167.5 581.1
06/09 08:10 23.2 71 14.76 17.7 13 20 1020.1 0 32.1 33.4 60.0 158.3 167.5 581.1
06/09 08:00 22.8 71 14.43 17.3 13 20 1020.1 0 31.4 33.0 58.8 155.3 163.7 567.8
06/09 07:50 22.7 72 14.55 17.4 15 24 1019.9 0 31.7 33.2 59.4 156.8 165.6 574.4
06/09 07:40 22.5 73 14.58 17.4 15 22 1019.9 0 31.8 33.3 59.7 157.6 166.5 577.4
06/09 07:30 21.9 74 14.28 17.1 13 20 1019.8 0 31.2 33.0 58.9 155.3 163.5 566.9
06/09 07:20 22.2 73 14.33 17.1 13 20 1019.7 0 31.3 33.0 58.8 155.3 163.5 567.1
06/09 07:10 22.5 72 14.38 17.2 19 26 1019.6 0 31.3 33.0 58.8 155.2 163.6 567.3
06/09 07:00 22 76 14.75 17.6 19 24 1019.5 0 32.2 33.8 60.8 160.5 170.0 589.5
06/09 06:50 21.5 76 14.33 17.1 19 24 1019.5 0 31.3 33.3 59.4 156.7 165.0 572.2
06/09 06:40 21.7 76 14.5 17.3 15 24 1019.5 0 31.7 33.5 60.0 158.2 167.0 579.2
06/09 06:30 21.5 76 14.33 17.1 17 24 1019.4 0 31.3 33.3 59.4 156.6 165.0 572.2
06/09 06:20 21.4 76 14.25 17 15 24 1019.3 0 31.2 33.1 59.1 155.9 164.1 568.9
06/09 06:10 21.5 77 14.52 17.3 15 20 1019.2 0 31.7 33.6 60.2 158.8 167.7 581.6
06/09 06:00 21.4 77 14.43 17.2 13 20 1019.1 0 31.5 33.5 59.9 158.0 166.6 577.8
06/09 05:50 21.5 77 14.52 17.3 13 22 1019.1 0 31.7 33.6 60.2 158.8 167.7 581.6
06/09 05:40 21.4 76 14.25 17 20 28 1019.1 0 31.2 33.1 59.1 155.9 164.1 568.8
06/09 05:29 21.5 77 14.52 17.3 24 28 1018.9 0 31.7 33.6 60.2 158.8 167.7 581.5
06/09 05:20 21.4 79 14.81 17.6 22 26 1018.9 0 32.3 34.1 61.5 162.4 172.1 596.9
06/09 05:10 21.3 78 14.54 17.3 24 30 1018.8 0 31.8 33.7 60.4 159.4 168.4 584.0
06/09 05:00 21.4 80 15 17.8 22 28 1018.7 0 32.8 34.5 62.4 164.7 174.9 606.5
06/09 04:50 21.2 80 14.82 17.6 30 35 1018.5 0 32.4 34.2 61.7 162.9 172.7 598.8
06/09 04:40 21.2 80 14.82 17.6 30 37 1018.1 0 32.4 34.2 61.7 162.9 172.6 598.6
06/09 04:30 21.3 80 14.91 17.7 28 33 1018.2 0 32.6 34.3 62.0 163.7 173.7 602.5

Last Refresh: 06-Sep-2026 20:41:40

Bureau of Meteorology